createdAt,value
2023-02-06T00:02:22.409Z,99.90
2023-02-06T00:06:04.492Z,99.90
2023-02-06T00:09:46.497Z,99.90
2023-02-06T00:13:28.467Z,99.90
2023-02-06T00:17:10.465Z,99.90
2023-02-06T00:20:53.022Z,99.90
2023-02-06T00:24:35.008Z,99.90
2023-02-06T00:28:17.042Z,99.90
2023-02-06T00:31:59.212Z,99.90
2023-02-06T00:35:41.433Z,99.90
2023-02-06T00:39:23.384Z,99.90
2023-02-06T00:43:05.746Z,99.90
2023-02-06T00:46:48.050Z,99.90
2023-02-06T00:50:30.053Z,99.90
2023-02-06T00:54:12.180Z,99.90
2023-02-06T00:57:54.153Z,99.90
2023-02-06T01:01:36.183Z,99.90
2023-02-06T01:05:18.357Z,99.90
2023-02-06T01:09:00.446Z,99.90
2023-02-06T01:12:42.981Z,99.90
2023-02-06T01:16:25.536Z,99.90
2023-02-06T01:20:09.996Z,99.90
2023-02-06T01:23:54.078Z,99.90
2023-02-06T01:27:39.202Z,99.90
2023-02-06T01:31:28.775Z,99.90
2023-02-06T01:35:11.934Z,99.90
2023-02-06T01:38:53.940Z,99.90
2023-02-06T01:42:39.974Z,99.90
2023-02-06T01:46:21.950Z,99.90
2023-02-06T01:50:04.155Z,99.90
2023-02-06T01:53:53.205Z,99.90
2023-02-06T01:57:35.474Z,99.90
2023-02-06T02:01:18.524Z,99.90
2023-02-06T02:05:02.467Z,99.90
2023-02-06T02:08:47.132Z,99.90
2023-02-06T02:12:29.158Z,99.90
2023-02-06T02:16:34.277Z,99.90
2023-02-06T02:20:35.185Z,99.90
2023-02-06T02:24:23.284Z,99.90
2023-02-06T02:28:35.850Z,99.90
2023-02-06T02:32:45.171Z,99.90
2023-02-06T02:36:39.398Z,99.90
2023-02-06T02:40:33.320Z,99.90
2023-02-06T02:44:24.281Z,99.90
2023-02-06T02:48:17.251Z,99.90
2023-02-06T02:52:00.622Z,99.90
2023-02-06T02:55:42.731Z,99.90
2023-02-06T02:59:31.116Z,99.90
2023-02-06T03:03:17.085Z,99.90
2023-02-06T03:07:17.568Z,99.90
2023-02-06T03:11:12.385Z,99.90
2023-02-06T03:15:03.170Z,99.90
2023-02-06T03:19:01.286Z,99.90
2023-02-06T03:22:47.389Z,99.90
2023-02-06T03:26:30.715Z,99.90
2023-02-06T03:30:15.151Z,99.90
2023-02-06T03:34:22.268Z,99.90
2023-02-06T03:38:06.613Z,99.90
2023-02-06T03:41:49.638Z,99.90
2023-02-06T03:45:40.184Z,99.90
2023-02-06T03:49:24.812Z,99.90
2023-02-06T03:53:07.731Z,99.90
2023-02-06T03:56:55.122Z,99.90
2023-02-06T04:00:39.349Z,99.90
2023-02-06T04:04:29.232Z,99.90
2023-02-06T04:08:11.284Z,99.90
2023-02-06T04:11:53.292Z,99.90
2023-02-06T04:15:35.542Z,99.90
2023-02-06T04:19:17.623Z,99.90
2023-02-06T04:22:59.646Z,99.90
2023-02-06T04:26:41.676Z,99.90
2023-02-06T04:30:23.708Z,99.90
2023-02-06T04:34:05.789Z,99.90
2023-02-06T04:37:47.759Z,99.90
2023-02-06T04:41:29.796Z,99.90
2023-02-06T04:45:12.211Z,99.90
2023-02-06T04:48:54.195Z,99.90
2023-02-06T04:52:36.350Z,99.90
2023-02-06T04:56:18.336Z,99.90
2023-02-06T05:00:00.392Z,99.90
2023-02-06T05:03:42.360Z,99.90
2023-02-06T05:07:25.099Z,99.90
2023-02-06T05:11:07.189Z,99.90
2023-02-06T05:14:49.183Z,99.90
2023-02-06T05:18:31.572Z,99.90
2023-02-06T05:22:13.691Z,99.90
2023-02-06T05:25:55.668Z,99.90
2023-02-06T05:29:37.692Z,99.90
2023-02-06T05:33:19.831Z,99.90
2023-02-06T05:37:01.797Z,99.90
2023-02-06T05:40:43.885Z,99.90
2023-02-06T05:44:25.919Z,99.90
2023-02-06T05:48:07.853Z,99.90
2023-02-06T05:51:49.867Z,99.90
2023-02-06T05:55:31.833Z,99.90
2023-02-06T05:59:13.829Z,99.90
2023-02-06T06:02:55.787Z,99.90
2023-02-06T06:06:37.842Z,99.90
2023-02-06T06:10:19.859Z,99.90
2023-02-06T06:14:01.824Z,99.90
2023-02-06T06:17:43.821Z,99.90
2023-02-06T06:21:25.836Z,99.90
2023-02-06T06:25:08.154Z,99.90
2023-02-06T06:28:50.159Z,99.90
2023-02-06T06:32:32.555Z,99.90
2023-02-06T06:36:15.795Z,99.90
2023-02-06T06:39:57.923Z,99.90
2023-02-06T06:43:39.971Z,99.90
2023-02-06T06:47:21.977Z,99.90
2023-02-06T06:51:04.880Z,99.90
2023-02-06T06:54:46.910Z,99.90
2023-02-06T06:58:28.885Z,99.90
2023-02-06T07:02:13.439Z,99.90
2023-02-06T07:05:55.465Z,99.90
2023-02-06T07:09:37.409Z,99.90
2023-02-06T07:13:19.377Z,99.90
2023-02-06T07:17:01.891Z,99.90
2023-02-06T07:20:43.958Z,99.90
2023-02-06T07:24:25.973Z,99.90
2023-02-06T07:28:09.010Z,99.90
2023-02-06T07:31:51.159Z,99.90
2023-02-06T07:35:34.183Z,99.90
2023-02-06T07:39:16.713Z,99.90
2023-02-06T07:43:01.319Z,99.90
2023-02-06T07:46:44.000Z,99.90
2023-02-06T07:50:26.041Z,99.90
2023-02-06T07:54:08.198Z,99.90
2023-02-06T07:57:51.656Z,99.90
2023-02-06T08:01:33.997Z,99.90
2023-02-06T08:05:16.008Z,99.90
2023-02-06T08:09:00.298Z,99.90
2023-02-06T08:12:43.060Z,99.90
2023-02-06T08:16:25.486Z,99.90
2023-02-06T08:20:07.801Z,99.90
2023-02-06T08:24:00.331Z,99.90
2023-02-06T08:27:42.321Z,99.90
2023-02-06T08:31:33.930Z,99.90
2023-02-06T08:35:16.292Z,99.90
2023-02-06T08:38:59.162Z,99.90
2023-02-06T08:42:41.133Z,99.90
2023-02-06T08:46:24.855Z,99.90
2023-02-06T08:50:07.028Z,99.90
2023-02-06T08:53:49.159Z,99.90
2023-02-06T08:57:31.154Z,99.90
2023-02-06T09:01:16.754Z,99.90
2023-02-06T09:04:59.369Z,99.90
2023-02-06T09:08:41.989Z,99.90
2023-02-06T09:12:23.907Z,99.90
2023-02-06T09:16:06.422Z,99.90
2023-02-06T09:19:48.534Z,99.90
2023-02-06T09:23:30.577Z,99.90
2023-02-06T09:27:12.529Z,99.90
2023-02-06T09:30:54.643Z,99.90
2023-02-06T09:34:36.634Z,99.90
2023-02-06T09:38:18.619Z,99.90
2023-02-06T09:42:06.935Z,99.90
2023-02-06T09:45:55.547Z,99.90
2023-02-06T09:49:44.503Z,99.90
2023-02-06T09:53:31.485Z,99.90
2023-02-06T09:57:35.110Z,99.90
2023-02-06T10:01:58.549Z,99.90
2023-02-06T10:05:56.815Z,99.90
2023-02-06T10:09:45.289Z,99.90
2023-02-06T10:13:50.306Z,99.90
2023-02-06T10:17:42.604Z,99.90
2023-02-06T10:21:47.236Z,99.90
2023-02-06T10:26:04.574Z,99.90
2023-02-06T10:29:48.316Z,99.90
2023-02-06T10:33:40.614Z,99.90
2023-02-06T10:37:22.539Z,99.90
2023-02-06T10:41:39.883Z,99.90
2023-02-06T10:45:24.947Z,99.90
2023-02-06T10:49:23.079Z,99.90
2023-02-06T10:53:13.505Z,99.90
2023-02-06T10:56:58.524Z,99.90
2023-02-06T11:00:41.471Z,99.90
2023-02-06T11:04:39.064Z,99.90
2023-02-06T11:08:28.357Z,99.90
2023-02-06T11:12:30.729Z,99.90
2023-02-06T11:16:16.778Z,99.90
2023-02-06T11:20:21.925Z,99.90
2023-02-06T11:24:13.248Z,99.90
2023-02-06T11:27:57.328Z,99.90
2023-02-06T11:31:39.363Z,99.90
2023-02-06T11:35:49.631Z,99.90
2023-02-06T11:39:32.934Z,99.90
2023-02-06T11:43:19.681Z,99.90
2023-02-06T11:47:25.749Z,99.90
2023-02-06T11:51:10.383Z,99.90
2023-02-06T11:54:54.921Z,99.90
2023-02-06T11:58:37.226Z,99.90
2023-02-06T12:02:31.113Z,99.90
2023-02-06T12:06:42.235Z,99.90
2023-02-06T12:10:26.344Z,99.90
2023-02-06T12:14:19.269Z,99.90
2023-02-06T12:18:05.781Z,99.90
2023-02-06T12:22:14.036Z,99.90
2023-02-06T12:25:59.930Z,99.90
2023-02-06T12:29:59.880Z,97.10
2023-02-06T12:33:49.115Z,98.20
2023-02-06T12:37:52.989Z,95.20
2023-02-06T12:41:59.258Z,96.40
2023-02-06T12:45:54.097Z,94.00
2023-02-06T12:49:50.834Z,94.00
2023-02-06T12:54:01.812Z,92.10
2023-02-06T12:57:44.401Z,94.40
2023-02-06T13:01:47.489Z,88.40
2023-02-06T13:05:40.742Z,90.10
2023-02-06T13:09:33.632Z,88.40
2023-02-06T13:13:36.832Z,84.90
2023-02-06T13:17:26.267Z,88.50
2023-02-06T13:21:29.955Z,82.10
2023-02-06T13:25:29.800Z,87.00
2023-02-06T13:29:28.125Z,87.00
2023-02-06T13:33:23.116Z,85.70
2023-02-06T13:37:37.435Z,81.30
2023-02-06T13:41:31.101Z,83.70
2023-02-06T13:45:33.421Z,80.50
2023-02-06T13:49:34.289Z,81.60
2023-02-06T13:53:35.067Z,73.60
2023-02-06T13:57:39.413Z,76.20
2023-02-06T14:01:27.975Z,81.30
2023-02-06T14:05:14.470Z,76.80
2023-02-06T14:09:05.570Z,78.20
2023-02-06T14:13:22.640Z,79.20
2023-02-06T14:17:07.456Z,83.70
2023-02-06T14:20:59.307Z,79.20
2023-02-06T14:24:50.046Z,79.80
2023-02-06T14:28:40.700Z,79.70
2023-02-06T14:32:29.114Z,80.90
2023-02-06T14:36:40.370Z,78.60
2023-02-06T14:40:28.178Z,82.40
2023-02-06T14:44:14.522Z,79.60
2023-02-06T14:48:00.409Z,84.50
2023-02-06T14:51:42.853Z,90.00
2023-02-06T14:55:41.880Z,90.80
2023-02-06T14:59:23.971Z,93.10
2023-02-06T15:03:08.119Z,93.40
2023-02-06T15:07:04.228Z,94.30
2023-02-06T15:10:47.122Z,95.80
2023-02-06T15:14:31.808Z,96.60
2023-02-06T15:18:20.327Z,97.40
2023-02-06T15:22:15.320Z,98.00
2023-02-06T15:26:16.046Z,98.40
2023-02-06T15:29:59.177Z,99.20
2023-02-06T15:33:41.553Z,99.90
2023-02-06T15:37:32.583Z,99.90
2023-02-06T15:41:14.766Z,99.90
2023-02-06T15:44:57.028Z,99.90
2023-02-06T15:48:43.513Z,99.90
2023-02-06T15:52:39.555Z,99.90
2023-02-06T15:56:23.825Z,99.90
2023-02-06T16:00:13.243Z,99.90
2023-02-06T16:04:05.588Z,99.90
2023-02-06T16:07:49.803Z,99.90
2023-02-06T16:11:47.667Z,99.90
2023-02-06T16:15:34.042Z,99.90
2023-02-06T16:19:45.746Z,99.90
2023-02-06T16:23:30.444Z,99.90
2023-02-06T16:27:19.526Z,99.90
2023-02-06T16:31:04.922Z,99.90
2023-02-06T16:34:47.642Z,99.90
2023-02-06T16:38:29.665Z,99.90
2023-02-06T16:42:20.710Z,99.90
2023-02-06T16:46:02.763Z,99.90
2023-02-06T16:49:48.299Z,99.90
2023-02-06T16:53:31.126Z,99.90
2023-02-06T16:57:31.125Z,99.90
2023-02-06T17:01:24.856Z,99.90
2023-02-06T17:05:07.193Z,99.90
2023-02-06T17:08:49.819Z,99.90
2023-02-06T17:12:35.773Z,99.90
2023-02-06T17:16:21.420Z,99.90
2023-02-06T17:20:03.754Z,99.90
2023-02-06T17:23:46.942Z,99.90
2023-02-06T17:27:28.957Z,99.90
2023-02-06T17:31:13.776Z,99.90
2023-02-06T17:34:58.276Z,99.90
2023-02-06T17:38:40.352Z,99.90
2023-02-06T17:42:23.277Z,99.90
2023-02-06T17:46:06.438Z,99.90
2023-02-06T17:49:48.718Z,99.90
2023-02-06T17:53:31.524Z,99.90
2023-02-06T17:57:13.763Z,99.90
2023-02-06T18:00:55.799Z,99.90
2023-02-06T18:04:37.863Z,99.90
2023-02-06T18:08:20.317Z,99.90
2023-02-06T18:12:02.396Z,99.90
2023-02-06T18:15:58.249Z,99.90
2023-02-06T18:19:44.236Z,99.90
2023-02-06T18:23:26.936Z,99.90
2023-02-06T18:27:09.883Z,99.90
2023-02-06T18:30:52.039Z,99.90
2023-02-06T18:34:34.844Z,99.90
2023-02-06T18:38:17.582Z,99.90
2023-02-06T18:42:18.093Z,99.90
2023-02-06T18:46:07.130Z,99.90
2023-02-06T18:49:49.209Z,99.90
2023-02-06T18:53:31.212Z,99.90
2023-02-06T18:57:13.209Z,99.90
2023-02-06T19:00:55.338Z,99.90
2023-02-06T19:04:37.369Z,99.90
2023-02-06T19:08:19.787Z,99.90
2023-02-06T19:12:01.766Z,99.90
2023-02-06T19:15:43.768Z,99.90
2023-02-06T19:19:26.018Z,99.90
2023-02-06T19:23:08.110Z,99.90
2023-02-06T19:26:50.099Z,99.90
2023-02-06T19:30:32.676Z,99.90
2023-02-06T19:34:14.715Z,99.90
2023-02-06T19:37:56.711Z,99.90
2023-02-06T19:41:39.154Z,99.90
2023-02-06T19:45:21.201Z,99.90
2023-02-06T19:49:06.097Z,99.90
2023-02-06T19:52:48.081Z,99.90
2023-02-06T19:56:39.351Z,99.90
2023-02-06T20:00:21.521Z,99.90
2023-02-06T20:04:04.152Z,99.90
2023-02-06T20:07:46.165Z,99.90
2023-02-06T20:11:28.107Z,99.90
2023-02-06T20:15:10.204Z,99.90
2023-02-06T20:18:52.804Z,99.90
2023-02-06T20:22:34.871Z,99.90
2023-02-06T20:26:19.282Z,99.90
2023-02-06T20:30:01.344Z,99.90
2023-02-06T20:33:45.139Z,99.90
2023-02-06T20:37:27.511Z,99.90
2023-02-06T20:41:10.082Z,99.90
2023-02-06T20:44:52.787Z,99.90
2023-02-06T20:48:35.765Z,99.90
2023-02-06T20:52:19.233Z,99.90
2023-02-06T20:56:01.232Z,99.90
2023-02-06T20:59:43.332Z,99.90
2023-02-06T21:03:26.773Z,99.90
2023-02-06T21:07:08.940Z,99.90
2023-02-06T21:10:52.157Z,99.90
2023-02-06T21:14:34.213Z,99.90
2023-02-06T21:18:16.161Z,99.90
2023-02-06T21:21:58.119Z,99.90
2023-02-06T21:25:40.180Z,99.90
2023-02-06T21:29:25.012Z,99.90
2023-02-06T21:33:07.268Z,99.90
2023-02-06T21:36:49.886Z,99.90
2023-02-06T21:40:32.158Z,99.90
2023-02-06T21:44:14.182Z,99.90
2023-02-06T21:47:56.153Z,99.90
2023-02-06T21:51:38.476Z,99.90
2023-02-06T21:55:20.391Z,99.90
2023-02-06T21:59:02.657Z,99.90
2023-02-06T22:02:44.916Z,99.90
2023-02-06T22:06:27.429Z,99.90
2023-02-06T22:10:10.000Z,99.90
2023-02-06T22:13:53.056Z,99.90
2023-02-06T22:17:35.599Z,99.90
2023-02-06T22:21:23.812Z,99.90
2023-02-06T22:25:06.502Z,99.90
2023-02-06T22:28:49.051Z,99.90
2023-02-06T22:32:31.084Z,99.90
2023-02-06T22:36:16.564Z,99.90
2023-02-06T22:39:58.604Z,99.90
2023-02-06T22:43:40.665Z,99.90
2023-02-06T22:47:22.616Z,99.90
2023-02-06T22:51:09.353Z,99.90
2023-02-06T22:54:51.258Z,99.90
2023-02-06T22:58:33.271Z,99.90
2023-02-06T23:02:15.313Z,99.90
2023-02-06T23:06:03.596Z,99.90
2023-02-06T23:09:45.608Z,99.90
2023-02-06T23:13:27.682Z,99.90
2023-02-06T23:17:10.444Z,99.90
2023-02-06T23:21:01.340Z,99.90
2023-02-06T23:24:43.251Z,99.90
2023-02-06T23:28:26.354Z,99.90
2023-02-06T23:32:08.301Z,99.90
2023-02-06T23:35:50.354Z,99.90
2023-02-06T23:39:32.282Z,99.90
2023-02-06T23:43:14.310Z,99.90
2023-02-06T23:46:56.367Z,99.90
2023-02-06T23:50:38.321Z,99.90
2023-02-06T23:54:20.251Z,99.90
2023-02-06T23:58:02.236Z,99.90
